Latest Weather Observations for Murrurundi Gap

IDN60801

Issued at 2:34 am EST Saturday 1 October 2016 (issued every 30 minutes, with the page automatically refreshed every 10 minutes)

About weather observations | Map of weather stations | Latest weather observations for NSW | Other Formats
Station Details ID: 061392 Name: MURRURUNDI GAP AWS Lat: -31.74 Lon: 150.79 Height: 729.4 m
Data from the previous 72 hours. | See also: Recent months at Murrurundi Gap
Date/Time
EST
Temp
°C
App
Temp
°C
Dew
Point
°C
Rel
Hum
%
Delta-T
°C
Wind Press
QNH
hPa
Press
MSL
hPa
Rain since
9am
mm
Dir  Spd
km/h
Gust
km/h
Spd
kts
Gust
kts
01/02:30am 6.3 -1.1 4.0 85 1.0 NNW 32 39 17 21 1007.7 1006.2 1.0
01/02:00am 6.8 -1.1 4.3 84 1.1 NNW 35 44 19 24 1007.6 1006.1 1.0
01/01:30am 6.6 -0.3 4.4 86 1.0 NW 30 39 16 21 1007.7 1006.2 1.0
01/01:00am 6.5 -1.0 4.3 86 1.0 NW 33 39 18 21 1007.6 1006.1 1.0
01/12:30am 6.7 -0.2 4.5 86 1.0 NNW 30 35 16 19 1007.8 1006.4 1.0
01/12:00am 6.9 -0.9 4.7 86 1.0 NNW 35 39 19 21 1007.9 1006.5 1.0
 
Date/Time
EST
Temp
°C
App
Temp
°C
Dew
Point
°C
Rel
Hum
%
Delta-T
°C
Wind Press
QNH
hPa
Press
MSL
hPa
Rain since
9am
mm
Dir  Spd
km/h
Gust
km/h
Spd
kts
Gust
kts
30/11:30pm 6.7 -1.5 4.7 87 0.9 NNW 37 43 20 23 1007.7 1006.2 1.0
30/11:00pm 6.6 -2.4 4.6 87 0.9 NNW 41 46 22 25 1007.5 1006.0 1.0
30/10:30pm 6.0 -3.0 4.5 90 0.7 NNW 41 44 22 24 1007.6 1006.1 1.0
30/10:00pm 6.7 -2.7 4.4 85 1.0 NNW 43 52 23 28 1007.4 1005.9 1.0
30/09:30pm 7.5 -2.4 4.8 83 1.2 NNW 46 56 25 30 1007.2 1005.7 1.0
30/09:00pm 7.2 -2.0 5.5 89 0.8 NNW 43 52 23 28 1007.1 1005.6 1.0
30/08:30pm 7.2 -2.5 5.8 91 0.7 NNW 46 54 25 29 1006.6 1005.2 1.0
30/08:00pm 7.2 -2.1 6.1 93 0.5 NNW 44 52 24 28 1006.3 1004.8 1.0
30/07:30pm 7.3 -1.8 6.1 92 0.6 NW 43 50 23 27 1005.8 1004.3 1.0
30/07:00pm 7.4 -1.6 6.3 93 0.5 NW 43 52 23 28 1005.5 1004.0 1.0
30/06:40pm 8.1 -2.4 5.7 85 1.1 NNW 50 69 27 37 1004.7 1003.2 1.0
30/06:30pm 8.7 -3.2 5.3 79 1.6 NNW 57 67 31 36 1004.3 1002.8 1.0
30/06:07pm 8.9 -1.7 5.1 77 1.8 NNW 50 69 27 37 1004.3 1002.8 1.0
30/06:00pm 9.0 -2.4 5.0 76 1.9 NNW 54 69 29 37 1003.9 1002.4 1.0
30/05:30pm 9.0 -2.6 5.6 79 1.6 NNW 56 69 30 37 1003.5 1002.0 1.0
30/05:00pm 8.8 -2.4 5.7 81 1.5 NNW 54 67 29 36 1003.2 1001.7 1.0
30/04:50pm 9.2 0.5 5.8 79 1.6 NNW 41 61 22 33 1003.5 1002.0 1.0
30/04:30pm 8.4 0.5 6.4 87 1.0 NNW 37 48 20 26 1003.6 1002.1 1.0
30/04:18pm 8.3 -0.8 5.8 84 1.2 NNW 43 52 23 28 1003.2 1001.7 1.0
30/04:06pm 7.9 -1.5 5.4 84 1.2 NNW 44 54 24 29 1003.1 1001.6 1.0
30/04:00pm 8.3 -1.0 4.9 79 1.6 NNW 43 54 23 29 1003.1 1001.6 0.8
30/03:33pm 7.6 -1.2 5.4 86 1.0 NW 41 50 22 27 1003.2 1001.7 0.8
30/03:30pm 7.4 -1.8 5.5 88 0.9 NW 43 57 23 31 1003.1 1001.6 0.8
30/03:17pm 7.3 -2.9 5.0 85 1.1 NNW 48 69 26 37 1002.8 1001.2 0.8
30/03:14pm 7.5 -2.0 4.8 83 1.2 NW 44 59 24 32 1002.9 1001.3 0.6
30/03:00pm 8.7 -0.7 4.7 76 1.9 NNW 43 57 23 31 1002.6 1001.0 0.4
30/02:30pm 8.7 -1.3 4.5 75 1.9 NNW 46 65 25 35 1002.1 1000.6 0.4
30/02:00pm 8.9 -1.4 4.7 75 2.0 NNW 48 63 26 34 1001.8 1000.3 0.4
30/01:30pm 8.3 -2.7 4.9 79 1.6 NNW 52 63 28 34 1002.0 1000.5 0.4
30/01:00pm 7.0 -3.6 5.3 89 0.8 NNW 50 65 27 35 1002.3 1000.8 0.4
30/12:30pm 7.5 -4.9 4.6 82 1.3 NNW 59 74 32 40 1001.8 1000.3 0.2
30/12:04pm 8.1 -5.1 4.3 77 1.7 NNW 63 83 34 45 1001.3 999.7 0.2
30/12:00pm 8.4 -4.8 4.2 75 1.9 NNW 63 74 34 40 1001.3 999.7 0.2
30/11:30am 7.8 -4.4 3.8 76 1.8 NNW 57 69 31 37 1001.6 1000.0 0.2
30/11:00am 8.0 -3.5 4.2 77 1.7 NNW 54 67 29 36 1001.8 1000.3 0.2
30/10:30am 8.5 -3.8 2.9 68 2.5 NNW 57 72 31 39 1001.6 1000.0 0.0
30/10:10am 8.9 -3.8 3.1 67 2.6 NNW 59 78 32 42 1001.4 999.8 0.0
30/10:00am 9.1 -4.8 2.7 64 2.9 NNW 65 76 35 41 1001.2 999.6 0.0
30/09:30am 9.1 -4.4 2.7 64 2.8 NNW 63 82 34 44 1000.9 999.4 0.0
30/09:07am 8.8 -3.6 2.4 64 2.8 NNW 57 76 31 41 1001.3 999.7 0.0
30/09:00am 8.9 -4.2 2.9 66 2.7 NNW 61 76 33 41 1001.2 999.6 4.8
30/08:30am 8.2 -5.9 1.6 63 2.8 NNW 65 78 35 42 1000.9 999.4 4.8
30/08:08am 7.6 -5.1 1.0 63 2.8 NNW 57 76 31 41 1001.4 999.8 4.8
30/08:00am 7.5 -5.0 0.9 63 2.8 NNW 56 69 30 37 1001.6 1000.0 4.8
30/07:30am 7.6 -2.9 1.5 65 2.6 NNW 46 57 25 31 1002.2 1000.7 4.8
30/07:00am 6.9 -4.5 0.8 65 2.6 NNW 50 57 27 31 1002.4 1000.9 4.8
30/06:30am 6.4 -5.0 0.5 66 2.4 NNW 50 57 27 31 1002.2 1000.7 4.8
30/06:00am 5.9 -5.5 0.3 67 2.3 NNW 50 59 27 32 1002.2 1000.7 4.8
30/05:30am 5.8 -4.9 0.2 67 2.3 NNW 46 54 25 29 1002.2 1000.7 4.8
30/05:00am 6.0 -4.7 0.1 66 2.4 NNW 46 54 25 29 1002.1 1000.6 4.8
30/04:30am 5.9 -4.4 0.0 66 2.4 NNW 44 52 24 28 1002.2 1000.7 4.8
30/04:00am 6.0 -4.4 -0.1 65 2.5 NNW 44 54 24 29 1002.3 1000.8 4.8
30/03:30am 6.0 -4.4 -0.1 65 2.5 NNW 44 52 24 28 1002.6 1001.0 4.8
30/03:00am 6.3 -3.9 0.0 64 2.6 NNW 43 50 23 27 1002.8 1001.2 4.8
30/02:30am 6.5 -3.8 0.0 63 2.6 NNW 44 52 24 28 1002.9 1001.3 4.8
30/02:00am 6.8 -4.3 0.0 62 2.8 NNW 48 56 26 30 1003.0 1001.5 4.8
30/01:30am 7.0 -3.2 0.0 61 2.9 NNW 43 50 23 27 1003.4 1001.9 4.8
30/01:00am 7.3 -3.1 -0.2 59 3.1 NNW 44 52 24 28 1003.6 1002.1 4.8
30/12:30am 7.5 -2.6 0.3 60 3.0 NNW 43 52 23 28 1003.6 1002.1 4.8
30/12:00am 7.7 -2.3 0.9 62 2.9 NNW 43 54 23 29 1003.5 1002.0 4.8
 
Date/Time
EST
Temp
°C
App
Temp
°C
Dew
Point
°C
Rel
Hum
%
Delta-T
°C
Wind Press
QNH
hPa
Press
MSL
hPa
Rain since
9am
mm
Dir  Spd
km/h
Gust
km/h
Spd
kts
Gust
kts
29/11:30pm 8.0 -1.9 1.4 63 2.8 NNW 43 52 23 28 1003.4 1001.9 4.8
29/11:00pm 8.6 -2.5 2.2 64 2.8 NNW 50 59 27 32 1002.9 1001.3 4.8
29/10:30pm 8.9 -2.1 2.9 66 2.7 NNW 50 61 27 33 1002.6 1001.0 4.8
29/10:00pm 9.1 -2.3 3.1 66 2.7 NNW 52 65 28 35 1002.3 1000.8 4.8
29/09:30pm 9.3 -1.0 4.7 73 2.1 NNW 48 61 26 33 1002.1 1000.6 4.8
29/09:00pm 9.5 -1.3 6.2 80 1.6 NNW 52 65 28 35 1001.7 1000.1 4.8
29/08:30pm 9.5 -0.9 7.6 88 0.9 NNW 52 65 28 35 1001.3 999.7 4.8
29/08:00pm 9.7 -0.6 8.0 89 0.9 NNW 52 67 28 36 1000.9 999.4 4.8
29/07:30pm 9.8 -1.0 7.6 86 1.1 NNW 54 63 29 34 1000.6 999.1 4.8
29/07:00pm 9.7 1.4 7.6 87 1.1 NNW 41 50 22 27 1000.6 999.1 4.8
29/06:30pm 9.3 1.8 7.9 91 0.7 NNW 37 48 20 26 1000.4 998.8 4.8
29/06:29pm 9.4 1.5 8.0 91 0.7 NNW 39 50 21 27 1000.3 998.7 4.8
29/06:20pm 9.3 0.1 7.9 91 0.7 NNW 46 65 25 35 1000.0 998.4 4.6
29/06:08pm 9.4 0.1 7.7 89 0.8 NNW 46 59 25 32 999.9 998.3 4.4
29/06:00pm 10.0 2.4 7.4 84 1.3 NNW 37 56 20 30 999.9 998.3 4.2
29/05:30pm 10.1 2.0 7.0 81 1.5 NNW 39 50 21 27 999.5 998.0 4.2
29/05:00pm 10.7 0.0 6.5 75 2.1 NNW 52 59 28 32 998.9 997.3 4.2
29/04:30pm 11.0 1.4 6.2 72 2.3 NNW 46 57 25 31 998.6 997.0 4.2
29/04:00pm 10.5 1.0 6.8 78 1.8 NNW 46 57 25 31 998.4 996.8 4.2
29/03:30pm 10.9 0.6 6.6 75 2.1 NNW 50 63 27 34 998.4 996.8 4.0
29/03:13pm 11.4 2.0 10.1 92 0.7 NNW 50 69 27 37 998.6 997.0 4.0
29/03:00pm 11.2 2.2 10.3 94 0.5 NNW 48 63 26 34 998.4 996.8 4.0
29/02:51pm 11.0 2.3 10.1 94 0.5 NNW 46 56 25 30 998.3 996.7 4.0
29/02:40pm 11.3 3.3 11.1 99 0.1 NNW 44 56 24 30 998.4 996.8 4.0
29/02:30pm 11.3 2.9 11.1 99 0.1 NNW 46 65 25 35 998.0 996.4 4.0
29/02:17pm 11.7 2.7 11.5 99 0.1 NNW 50 72 27 39 997.6 996.0 3.2
29/02:00pm 12.3 3.5 12.1 99 0.1 NNW 50 61 27 33 997.6 996.0 3.2
29/01:30pm 12.5 3.7 12.3 99 0.1 NNW 50 69 27 37 998.2 996.6 2.6
29/01:26pm 12.5 4.5 12.3 99 0.1 NNW 46 69 25 37 998.2 996.6 2.4
29/01:00pm 12.3 3.5 12.1 99 0.1 NNW 50 61 27 33 998.8 997.2 2.4
29/12:49pm 12.3 3.1 12.1 99 0.1 NNW 52 65 28 35 998.7 997.1 1.8
29/12:47pm 12.3 3.1 12.1 99 0.1 NNW 52 65 28 35 998.7 997.1 1.8
29/12:30pm 12.3 3.5 12.1 99 0.1 NNW 50 67 27 36 999.0 997.4 1.8
29/12:16pm 12.8 4.0 12.3 97 0.3 NNW 50 67 27 36 999.0 997.4 1.2
29/12:12pm 12.9 4.5 12.3 96 0.3 NNW 48 67 26 36 999.1 997.5 1.2
29/12:00pm 12.9 4.1 12.3 96 0.3 NNW 50 61 27 33 999.2 997.6 1.2
29/11:42am 12.7 4.2 12.1 96 0.3 NNW 48 59 26 32 999.7 998.1 1.2
29/11:30am 12.6 4.5 12.0 96 0.3 NNW 46 63 25 34 1000.0 998.4 1.2
29/11:29am 12.6 4.4 11.8 95 0.4 NNW 46 63 25 34 1000.0 998.4 1.2
29/11:00am 12.4 4.2 11.6 95 0.4 NNW 46 76 25 41 1000.6 999.1 1.0
29/10:58am 12.6 4.5 12.0 96 0.3 NNW 46 69 25 37 1000.6 999.1 1.0
29/10:30am 11.9 4.2 11.6 98 0.2 NNW 43 54 23 29 1001.2 999.6 1.0
29/10:09am 11.8 4.0 11.2 96 0.3 N 43 61 23 33 1001.4 999.8 1.0
29/10:03am 12.0 4.1 11.4 96 0.3 NNW 44 61 24 33 1001.5 999.9 1.0
29/10:00am 11.9 4.1 11.3 96 0.3 NNW 43 59 23 32 1001.5 999.9 1.0
29/09:56am 11.6 4.2 11.1 97 0.3 NNW 41 56 22 30 1001.6 1000.0 0.8
29/09:36am 11.5 4.3 10.6 94 0.5 NNW 39 63 21 34 1002.0 1000.5 0.6
29/09:30am 11.7 4.2 10.8 94 0.5 NNW 41 63 22 34 1002.0 1000.5 0.4
29/09:15am 11.4 4.6 10.8 96 0.3 NNW 37 50 20 27 1002.3 1000.8 0.2
29/09:00am 11.1 3.8 10.3 95 0.4 NNW 39 54 21 29 1002.2 1000.7 1.2
29/08:58am 11.1 3.8 10.2 94 0.5 NNW 39 54 21 29 1002.2 1000.7 1.2
29/08:51am 11.3 4.4 10.4 94 0.5 NNW 37 54 20 29 1002.4 1000.9 1.2
29/08:39am 11.0 4.1 10.2 95 0.4 NNW 37 50 20 27 1002.6 1001.0 1.2
29/08:30am 11.0 4.1 10.2 95 0.4 NNW 37 46 20 25 1002.7 1001.1 1.0
29/08:00am 11.4 4.7 9.5 88 1.0 NNW 35 50 19 27 1003.0 1001.5 0.4
29/07:39am 12.0 3.3 8.5 79 1.8 NNW 44 63 24 34 1003.2 1001.7 0.0
29/07:30am 13.0 3.5 8.3 73 2.4 NNW 48 65 26 35 1002.6 1001.0 0.0
29/07:00am 13.4 4.6 7.4 67 3.1 NNW 43 63 23 34 1002.4 1000.9 0.0
29/06:30am 12.9 2.7 7.1 68 2.9 NNW 50 78 27 42 1002.3 1000.8 0.0
29/06:09am 14.8 5.4 5.3 53 4.7 NNW 44 67 24 36 1002.3 1000.8 0.0
29/06:00am 14.8 5.4 5.3 53 4.7 NNW 44 61 24 33 1002.3 1000.8 0.0
29/05:30am 15.0 6.6 5.5 53 4.7 NNW 39 57 21 31 1002.9 1001.3 0.0
29/05:08am 14.7 6.2 5.2 53 4.7 N 39 57 21 31 1002.9 1001.3 0.0
29/05:00am 14.8 5.9 5.1 52 4.8 N 41 57 22 31 1003.0 1001.5 0.0
29/04:40am 15.1 6.9 5.0 51 4.9 NNW 37 56 20 30 1003.4 1001.9 0.0
29/04:30am 14.6 6.0 4.9 52 4.7 NNW 39 52 21 28 1003.5 1002.0 0.0
29/04:19am 14.7 6.5 5.0 52 4.7 NNW 37 57 20 31 1003.6 1002.1 0.0
29/04:00am 14.4 6.6 5.0 53 4.6 N 35 50 19 27 1004.1 1002.5 0.0
29/03:30am 13.9 7.0 4.8 54 4.4 N 30 43 16 23 1004.8 1003.3 0.0
29/03:00am 13.5 7.3 4.1 53 4.5 NNW 26 37 14 20 1005.3 1003.9 0.0
29/02:30am 13.2 8.0 3.6 52 4.5 N 20 30 11 16 1006.1 1004.6 0.0
29/02:00am 13.0 7.4 3.4 52 4.5 N 22 32 12 17 1006.6 1005.2 0.0
29/01:30am 12.8 6.7 2.9 51 4.6 N 24 37 13 20 1007.2 1005.7 0.0
29/01:00am 12.8 7.1 2.6 50 4.7 N 22 33 12 18 1008.0 1006.6 0.0
29/12:30am 12.9 6.4 2.5 49 4.7 N 26 35 14 19 1008.7 1007.2 0.0
29/12:00am 11.9 5.5 3.2 55 4.0 NNW 26 33 14 18 1009.1 1007.7 0.0
 
Date/Time
EST
Temp
°C
App
Temp
°C
Dew
Point
°C
Rel
Hum
%
Delta-T
°C
Wind Press
QNH
hPa
Press
MSL
hPa
Rain since
9am
mm
Dir  Spd
km/h
Gust
km/h
Spd
kts
Gust
kts
28/11:30pm 12.7 5.8 2.8 51 4.5 NNW 28 32 15 17 1009.4 1008.0 0.0
28/11:00pm 12.8 6.0 2.9 51 4.6 NNW 28 33 15 18 1009.7 1008.3 0.0
28/10:30pm 13.0 7.4 3.4 52 4.5 NNW 22 30 12 16 1010.1 1008.6 0.0
28/10:00pm 12.7 10.5 3.4 53 4.3 NW 4 9 2 5 1010.6 1009.2 0.0
28/09:30pm 12.3 10.8 3.0 53 4.3 CALM 0 0 0 0 1010.9 1009.5 0.0
28/09:00pm 12.5 10.1 2.4 50 4.6 SSE 4 7 2 4 1011.1 1009.7 0.0
28/08:30pm 12.2 10.5 1.8 49 4.6 CALM 0 0 0 0 1011.2 1009.8 0.0
28/08:00pm 12.5 9.7 2.1 49 4.7 N 6 9 3 5 1011.2 1009.8 0.0
28/07:30pm 12.6 9.0 2.7 51 4.5 NNW 11 13 6 7 1011.2 1009.8 0.0
28/07:00pm 12.9 9.8 3.6 53 4.4 NW 9 9 5 5 1011.0 1009.6 0.0
28/06:30pm 12.5 8.8 4.2 57 3.9 NNW 13 15 7 8 1010.9 1009.5 0.0
28/06:00pm 13.1 9.1 4.8 57 4.0 NW 15 20 8 11 1011.1 1009.7 0.0
28/05:30pm 14.7 9.9 4.7 51 4.9 NNW 19 20 10 11 1010.9 1009.5 0.0
28/05:00pm 15.4 10.4 4.5 48 5.3 NW 20 26 11 14 1010.9 1009.5 0.0
28/04:30pm 15.9 10.9 4.6 47 5.5 NW 20 26 11 14 1010.8 1009.4 0.0
28/04:00pm 16.1 11.3 5.4 49 5.3 NNW 20 24 11 13 1010.6 1009.2 0.0
28/03:30pm 16.5 12.6 5.5 48 5.5 NW 15 19 8 10 1010.8 1009.4 0.0
28/03:00pm 16.8 13.9 6.3 50 5.4 NNW 11 17 6 9 1011.2 1009.8 0.0
28/02:30pm 16.2 12.6 6.9 54 4.8 N 15 22 8 12 1011.7 1010.3 0.0
28/02:00pm 15.9 11.5 6.6 54 4.7 NNW 19 26 10 14 1012.3 1010.9 0.0
28/01:30pm 15.6 12.1 5.5 51 5.0 NNW 13 19 7 10 1012.6 1011.3 0.0
28/01:00pm 15.8 13.4 5.4 50 5.2 N 7 15 4 8 1013.1 1011.7 0.0
28/12:30pm 14.9 12.2 5.4 53 4.7 NW 9 13 5 7 1013.4 1012.0 0.0
28/12:00pm 14.5 11.4 5.6 55 4.4 NNW 11 17 6 9 1013.9 1012.6 0.0
28/11:30am 13.3 9.2 4.5 55 4.2 NW 15 20 8 11 1014.3 1012.9 0.0
28/11:00am 12.6 8.5 4.1 56 4.0 NW 15 22 8 12 1014.6 1013.2 0.0
28/10:30am 12.0 8.0 4.7 61 3.5 NW 15 20 8 11 1014.9 1013.6 0.0
28/10:00am 12.3 9.7 3.3 54 4.2 SE 6 13 3 7 1015.1 1013.8 0.0
28/09:30am 11.7 8.8 4.7 62 3.3 SSE 9 15 5 8 1015.1 1013.8 0.0
28/09:00am 10.1 5.9 3.6 64 3.0 SE 15 22 8 12 1015.1 1013.8 0.0
28/08:30am 9.9 5.9 4.7 70 2.4 SE 15 20 8 11 1015.0 1013.7 0.0
28/08:00am 9.0 5.1 3.6 69 2.4 SE 13 17 7 9 1014.9 1013.6 0.0
28/07:30am 8.8 5.9 2.4 64 2.8 SE 7 9 4 5 1014.8 1013.4 0.0
28/07:00am 7.5 5.4 1.4 65 2.6 NNE 2 9 1 5 1014.6 1013.2 0.0
28/06:30am 7.0 3.7 2.5 73 2.0 SSE 9 13 5 7 1014.3 1012.9 0.0
28/06:00am 4.8 0.6 1.8 81 1.3 SSE 13 17 7 9 1013.8 1012.5 0.0
28/05:30am 4.3 -0.4 1.2 80 1.3 SE 15 17 8 9 1013.6 1012.2 0.0
28/05:00am 5.7 2.1 0.9 71 2.0 SE 9 15 5 8 1013.7 1012.4 0.0
28/04:30am 6.5 2.9 0.8 67 2.4 SSE 9 15 5 8 1013.8 1012.5 0.0
28/04:00am 7.3 3.7 0.5 62 2.8 SW 9 13 5 7 1013.7 1012.4 0.0
28/03:30am 6.8 3.6 0.9 66 2.5 S 7 9 4 5 1013.7 1012.4 0.0
28/03:00am 6.3 2.0 0.8 68 2.3 SE 13 17 7 9 1013.4 1012.0 0.0

Other Formats:

Comma delimited format used in spreadsheet applications
http://www.bom.gov.au/fwo/IDN60801/IDN60801.95747.axf

JavaScript Object Notation format (JSON) in row-major order
http://www.bom.gov.au/fwo/IDN60801/IDN60801.95747.json